createdAt,value
2018-08-22T00:01:20.326Z,2.33
2018-08-22T00:03:48.482Z,2.47
2018-08-22T00:06:16.622Z,2.87
2018-08-22T00:08:45.460Z,2.43
2018-08-22T00:11:14.358Z,2.70
2018-08-22T00:13:43.462Z,3.23
2018-08-22T00:16:11.586Z,2.77
2018-08-22T00:18:39.706Z,2.70
2018-08-22T00:21:07.860Z,2.60
2018-08-22T00:23:35.974Z,2.90
2018-08-22T00:26:04.122Z,2.70
2018-08-22T00:28:32.245Z,2.50
2018-08-22T00:31:00.426Z,2.77
2018-08-22T00:33:28.575Z,3.07
2018-08-22T00:35:56.715Z,2.50
2018-08-22T00:38:24.867Z,2.30
2018-08-22T00:40:52.994Z,2.70
2018-08-22T00:43:21.113Z,3.00
2018-08-22T00:45:49.241Z,2.93
2018-08-22T00:48:17.371Z,2.27
2018-08-22T00:50:45.606Z,2.63
2018-08-22T00:53:13.738Z,2.50
2018-08-22T00:55:41.890Z,2.80
2018-08-22T00:58:10.002Z,2.70
2018-08-22T01:00:38.134Z,2.70
2018-08-22T01:03:06.468Z,2.63
2018-08-22T01:05:34.629Z,2.73
2018-08-22T01:08:02.744Z,2.80
2018-08-22T01:10:30.866Z,2.90
2018-08-22T01:12:59.862Z,2.50
2018-08-22T01:15:28.185Z,2.90
2018-08-22T01:17:56.333Z,2.40
2018-08-22T01:20:24.569Z,2.67
2018-08-22T01:22:52.730Z,2.40
2018-08-22T01:25:20.859Z,2.47
2018-08-22T01:27:48.990Z,2.37
2018-08-22T01:30:17.123Z,2.60
2018-08-22T01:32:45.254Z,2.87
2018-08-22T01:35:13.395Z,2.50
2018-08-22T01:37:41.514Z,2.33
2018-08-22T01:40:09.638Z,2.50
2018-08-22T01:42:37.770Z,2.50
2018-08-22T01:45:06.033Z,2.43
2018-08-22T01:47:34.269Z,2.70
2018-08-22T01:50:02.374Z,2.60
2018-08-22T01:52:30.514Z,2.90
2018-08-22T01:54:58.678Z,2.40
2018-08-22T01:57:26.839Z,2.70
2018-08-22T01:59:54.954Z,2.57
2018-08-22T02:02:23.093Z,2.60
2018-08-22T02:04:51.296Z,2.87
2018-08-22T02:07:19.418Z,2.80
2018-08-22T02:09:47.536Z,2.73
2018-08-22T02:12:15.666Z,2.40
2018-08-22T02:14:43.861Z,2.60
2018-08-22T02:17:11.982Z,2.67
2018-08-22T02:19:40.099Z,2.77
2018-08-22T02:22:08.226Z,2.67
2018-08-22T02:24:36.346Z,2.50
2018-08-22T02:27:04.470Z,2.63
2018-08-22T02:29:32.606Z,3.50
2018-08-22T02:32:00.750Z,2.70
2018-08-22T02:34:28.897Z,2.83
2018-08-22T02:36:57.038Z,2.57
2018-08-22T02:39:25.164Z,2.60
2018-08-22T02:41:53.294Z,2.60
2018-08-22T02:44:21.414Z,2.80
2018-08-22T02:46:49.575Z,2.53
2018-08-22T02:49:17.687Z,2.50
2018-08-22T02:51:46.499Z,2.50
2018-08-22T02:54:14.618Z,2.63
2018-08-22T02:56:42.744Z,2.80
2018-08-22T02:59:10.874Z,2.70
2018-08-22T03:01:38.993Z,2.80
2018-08-22T03:04:07.129Z,2.87
2018-08-22T03:06:35.282Z,3.10
2018-08-22T03:09:04.274Z,2.50
2018-08-22T03:11:32.406Z,2.83
2018-08-22T03:14:00.531Z,2.80
2018-08-22T03:16:28.702Z,2.90
2018-08-22T03:18:56.863Z,2.70
2018-08-22T03:21:24.990Z,3.23
2018-08-22T03:23:53.118Z,2.87
2018-08-22T03:26:21.238Z,3.03
2018-08-22T03:28:49.444Z,3.10
2018-08-22T03:31:17.569Z,2.90
2018-08-22T03:33:45.706Z,2.70
2018-08-22T03:36:13.814Z,3.00
2018-08-22T03:38:41.956Z,3.10
2018-08-22T03:41:10.081Z,3.67
2018-08-22T03:43:38.209Z,2.87
2018-08-22T03:46:06.378Z,3.13
2018-08-22T03:48:34.506Z,3.53
2018-08-22T03:51:02.734Z,2.97
2018-08-22T03:53:30.915Z,3.03
2018-08-22T03:55:59.117Z,2.87
2018-08-22T03:58:27.322Z,3.07
2018-08-22T04:00:55.502Z,3.13
2018-08-22T04:03:23.678Z,3.07
2018-08-22T04:05:51.850Z,2.90
2018-08-22T04:08:20.063Z,3.30
2018-08-22T04:10:48.230Z,3.00
2018-08-22T04:13:16.409Z,3.10
2018-08-22T04:15:44.593Z,3.17
2018-08-22T04:18:12.793Z,2.90
2018-08-22T04:20:40.986Z,2.93
2018-08-22T04:23:09.212Z,3.20
2018-08-22T04:25:37.378Z,3.10
2018-08-22T04:28:05.730Z,3.10
2018-08-22T04:30:33.923Z,3.03
2018-08-22T04:33:02.118Z,3.30
2018-08-22T04:35:30.314Z,3.77
2018-08-22T04:37:58.570Z,3.33
2018-08-22T04:40:26.778Z,3.50
2018-08-22T04:42:54.962Z,3.10
2018-08-22T04:45:23.138Z,3.37
2018-08-22T04:47:51.357Z,3.30
2018-08-22T04:50:19.490Z,3.20
2018-08-22T04:52:47.630Z,3.03
2018-08-22T04:55:15.766Z,3.37
2018-08-22T04:57:43.929Z,3.43
2018-08-22T05:00:12.060Z,3.10
2018-08-22T05:02:40.238Z,3.90
2018-08-22T05:05:08.526Z,4.03
2018-08-22T05:07:36.682Z,4.23
2018-08-22T05:10:05.472Z,4.57
2018-08-22T05:12:33.670Z,3.67
2018-08-22T05:15:01.833Z,3.60
2018-08-22T05:17:29.945Z,3.40
2018-08-22T05:19:58.074Z,4.00
2018-08-22T05:22:26.202Z,3.80
2018-08-22T05:24:54.411Z,4.90
2018-08-22T05:27:22.538Z,4.10
2018-08-22T05:29:51.278Z,4.03
2018-08-22T05:32:19.382Z,4.00
2018-08-22T05:34:47.635Z,3.80
2018-08-22T05:37:16.042Z,3.50
2018-08-22T05:39:44.166Z,3.80
2018-08-22T05:42:12.289Z,3.60
2018-08-22T05:44:40.453Z,3.80
2018-08-22T05:47:08.602Z,3.80
2018-08-22T05:49:37.750Z,3.80
2018-08-22T05:52:05.914Z,3.90
2018-08-22T05:54:34.048Z,4.37
2018-08-22T05:57:02.178Z,4.23
2018-08-22T05:59:30.318Z,4.83
2018-08-22T06:01:58.470Z,4.20
2018-08-22T06:04:26.608Z,4.13
2018-08-22T06:06:54.734Z,3.77
2018-08-22T06:09:22.871Z,4.07
2018-08-22T06:11:50.994Z,3.63
2018-08-22T06:14:19.118Z,4.60
2018-08-22T06:16:47.234Z,3.77
2018-08-22T06:19:15.389Z,3.63
2018-08-22T06:21:43.530Z,3.67
2018-08-22T06:24:11.682Z,3.87
2018-08-22T06:26:39.814Z,3.90
2018-08-22T06:29:07.948Z,4.27
2018-08-22T06:31:36.064Z,4.67
2018-08-22T06:34:04.242Z,4.50
2018-08-22T06:36:32.430Z,4.20
2018-08-22T06:39:00.582Z,4.33
2018-08-22T06:41:28.722Z,4.20
2018-08-22T06:43:56.862Z,3.60
2018-08-22T06:46:24.991Z,4.37
2018-08-22T06:48:53.165Z,3.40
2018-08-22T06:51:21.323Z,4.47
2018-08-22T06:53:49.438Z,3.90
2018-08-22T06:56:17.594Z,3.97
2018-08-22T06:58:45.730Z,3.40
2018-08-22T07:01:13.867Z,3.70
2018-08-22T07:03:41.984Z,3.83
2018-08-22T07:06:10.121Z,4.00
2018-08-22T07:08:38.249Z,4.70
2018-08-22T07:11:06.418Z,4.13
2018-08-22T07:13:34.587Z,4.00
2018-08-22T07:16:02.751Z,4.20
2018-08-22T07:18:30.870Z,4.40
2018-08-22T07:20:59.028Z,3.57
2018-08-22T07:23:27.165Z,3.90
2018-08-22T07:25:55.328Z,4.00
2018-08-22T07:28:23.453Z,3.93
2018-08-22T07:30:51.598Z,3.70
2018-08-22T07:33:19.714Z,4.13
2018-08-22T07:35:47.905Z,3.90
2018-08-22T07:38:15.966Z,4.10
2018-08-22T07:40:44.122Z,4.27
2018-08-22T07:43:12.238Z,4.73
2018-08-22T07:45:40.366Z,4.00
2018-08-22T07:48:08.497Z,4.50
2018-08-22T07:50:36.639Z,4.70
2018-08-22T07:53:05.762Z,4.13
2018-08-22T07:55:35.851Z,4.23
2018-08-22T07:58:04.153Z,4.00
2018-08-22T08:00:32.274Z,4.07
2018-08-22T08:03:01.334Z,3.57
2018-08-22T08:05:30.563Z,3.70
2018-08-22T08:07:58.808Z,3.90
2018-08-22T08:10:32.930Z,3.47
2018-08-22T08:13:01.544Z,3.67
2018-08-22T08:15:29.706Z,3.97
2018-08-22T08:17:58.895Z,4.10
2018-08-22T08:20:27.069Z,3.83
2018-08-22T08:22:55.246Z,3.80
2018-08-22T08:25:23.395Z,3.67
2018-08-22T08:27:51.524Z,3.80
2018-08-22T08:30:19.654Z,3.20
2018-08-22T08:32:47.801Z,3.80
2018-08-22T08:35:15.929Z,3.00
2018-08-22T08:37:44.122Z,3.40
2018-08-22T08:40:12.251Z,3.90
2018-08-22T08:42:40.386Z,3.60
2018-08-22T08:45:09.500Z,3.00
2018-08-22T08:47:37.643Z,3.23
2018-08-22T08:50:05.864Z,3.33
2018-08-22T08:52:34.578Z,3.50
2018-08-22T08:55:02.734Z,3.60
2018-08-22T08:57:30.882Z,4.03
2018-08-22T08:59:59.062Z,4.53
2018-08-22T09:02:27.283Z,4.70
2018-08-22T09:04:55.447Z,3.70
2018-08-22T09:07:23.570Z,4.33
2018-08-22T09:09:51.734Z,3.90
2018-08-22T09:12:19.954Z,3.80
2018-08-22T09:14:48.066Z,4.30
2018-08-22T09:17:16.232Z,3.97
2018-08-22T09:19:44.402Z,4.50
2018-08-22T09:22:12.599Z,4.20
2018-08-22T09:24:40.763Z,4.57
2018-08-22T09:27:08.882Z,4.03
2018-08-22T09:29:37.056Z,4.70
2018-08-22T09:32:05.274Z,4.93
2018-08-22T09:34:33.423Z,4.80
2018-08-22T09:37:01.574Z,5.07
2018-08-22T09:39:30.675Z,5.50
2018-08-22T09:41:58.754Z,4.60
2018-08-22T09:44:26.916Z,4.73
2018-08-22T09:46:55.070Z,4.37
2018-08-22T09:49:23.230Z,4.57
2018-08-22T09:51:51.442Z,5.00
2018-08-22T09:54:19.591Z,5.43
2018-08-22T09:56:47.776Z,4.13
2018-08-22T09:59:15.910Z,5.10
2018-08-22T10:01:44.926Z,4.67
2018-08-22T10:04:13.073Z,4.73
2018-08-22T10:06:46.310Z,5.03
2018-08-22T10:09:17.327Z,5.30
2018-08-22T10:11:45.624Z,4.77
2018-08-22T10:14:14.002Z,4.93
2018-08-22T10:16:42.150Z,5.13
2018-08-22T10:19:10.311Z,5.60
2018-08-22T10:21:38.463Z,5.10
2018-08-22T10:24:06.634Z,6.40
2018-08-22T10:26:34.901Z,6.53
2018-08-22T10:29:03.019Z,5.37
2018-08-22T10:31:31.147Z,5.60
2018-08-22T10:33:59.336Z,5.27
2018-08-22T10:36:27.499Z,4.73
2018-08-22T10:38:55.655Z,5.00
2018-08-22T10:41:23.766Z,5.10
2018-08-22T10:43:51.901Z,6.20
2018-08-22T10:46:20.026Z,6.30
2018-08-22T10:48:48.177Z,4.60
2018-08-22T10:51:16.367Z,6.17
2018-08-22T10:53:44.562Z,6.40
2018-08-22T10:56:12.756Z,5.37
2018-08-22T10:58:41.065Z,6.43
2018-08-22T11:01:09.242Z,5.70
2018-08-22T11:03:37.502Z,6.20
2018-08-22T11:06:05.882Z,6.57
2018-08-22T11:08:34.110Z,5.90
2018-08-22T11:11:02.290Z,6.67
2018-08-22T11:13:30.474Z,6.30
2018-08-22T11:15:58.742Z,5.97
2018-08-22T11:18:26.967Z,6.20
2018-08-22T11:20:54.854Z,6.17
2018-08-22T11:23:34.752Z,5.33
2018-08-22T11:26:14.484Z,5.30
2018-08-22T11:28:53.918Z,6.00
2018-08-22T11:31:33.526Z,6.33
2018-08-22T11:34:13.084Z,6.83
2018-08-22T11:36:41.771Z,6.40
2018-08-22T11:39:10.032Z,6.90
2018-08-22T11:41:38.214Z,7.73
2018-08-22T11:44:06.442Z,6.13
2018-08-22T11:46:34.657Z,6.57
2018-08-22T11:49:02.863Z,6.23
2018-08-22T11:51:31.109Z,7.20
2018-08-22T11:53:59.354Z,7.80
2018-08-22T11:56:27.588Z,6.73
2018-08-22T11:58:55.792Z,6.87
2018-08-22T12:01:24.014Z,7.07
2018-08-22T12:03:52.186Z,6.70
2018-08-22T12:06:20.362Z,6.13
2018-08-22T12:08:48.543Z,6.77
2018-08-22T12:11:16.718Z,6.30
2018-08-22T12:13:44.906Z,6.50
2018-08-22T12:16:13.125Z,6.67
2018-08-22T12:18:41.274Z,6.70
2018-08-22T12:21:09.442Z,6.50
2018-08-22T12:23:37.631Z,5.97
2018-08-22T12:26:05.822Z,6.90
2018-08-22T12:28:34.010Z,6.47
2018-08-22T12:31:02.315Z,7.40
2018-08-22T12:33:30.673Z,6.90
2018-08-22T12:35:58.858Z,6.60
2018-08-22T12:38:27.467Z,7.00
2018-08-22T12:40:55.678Z,7.13
2018-08-22T12:43:23.869Z,6.70
2018-08-22T12:45:52.403Z,6.80
2018-08-22T12:48:20.625Z,6.60
2018-08-22T12:50:48.817Z,6.73
2018-08-22T12:53:17.030Z,6.80
2018-08-22T12:55:45.218Z,7.20
2018-08-22T12:58:13.398Z,6.47
2018-08-22T13:00:41.610Z,5.70
2018-08-22T13:03:09.895Z,6.00
2018-08-22T13:05:38.081Z,6.87
2018-08-22T13:08:06.466Z,7.40
2018-08-22T13:10:34.665Z,6.00
2018-08-22T13:13:02.858Z,6.70
2018-08-22T13:15:31.051Z,6.90
2018-08-22T13:17:59.259Z,6.97
2018-08-22T13:20:27.454Z,6.23
2018-08-22T13:22:55.724Z,6.23
2018-08-22T13:25:23.905Z,7.30
2018-08-22T13:27:52.077Z,6.90
2018-08-22T13:30:20.307Z,7.47
2018-08-22T13:32:48.450Z,6.97
2018-08-22T13:35:16.649Z,6.30
2018-08-22T13:37:44.951Z,7.50
2018-08-22T13:40:13.383Z,7.03
2018-08-22T13:42:41.582Z,6.27
2018-08-22T13:45:10.102Z,6.60
2018-08-22T13:47:38.274Z,7.30
2018-08-22T13:50:06.424Z,7.20
2018-08-22T13:52:34.582Z,8.00
2018-08-22T13:55:02.719Z,7.63
2018-08-22T13:57:30.849Z,7.10
2018-08-22T13:59:58.978Z,7.10
2018-08-22T14:02:27.095Z,7.37
2018-08-22T14:04:55.334Z,6.50
2018-08-22T14:07:23.464Z,8.30
2018-08-22T14:09:51.617Z,7.90
2018-08-22T14:12:19.734Z,7.33
2018-08-22T14:14:47.866Z,7.50
2018-08-22T14:17:16.007Z,6.87
2018-08-22T14:19:44.148Z,6.83
2018-08-22T14:22:12.354Z,7.73
2018-08-22T14:24:40.499Z,8.63
2018-08-22T14:27:08.630Z,7.60
2018-08-22T14:29:36.770Z,6.87
2018-08-22T14:32:05.252Z,7.07
2018-08-22T14:34:33.369Z,7.77
2018-08-22T14:37:01.570Z,7.60
2018-08-22T14:39:29.676Z,9.40
2018-08-22T14:41:57.882Z,7.13
2018-08-22T14:44:25.999Z,8.67
2018-08-22T14:46:54.131Z,7.97
2018-08-22T14:49:22.251Z,9.00
2018-08-22T14:51:50.445Z,8.60
2018-08-22T14:54:18.713Z,8.70
2018-08-22T14:56:46.887Z,7.67
2018-08-22T14:59:15.062Z,8.77
2018-08-22T15:01:43.245Z,8.03
2018-08-22T15:04:11.414Z,7.87
2018-08-22T15:06:39.595Z,8.10
2018-08-22T15:09:13.436Z,7.33
2018-08-22T15:11:41.626Z,7.87
2018-08-22T15:14:09.827Z,8.10
2018-08-22T15:16:38.002Z,7.50
2018-08-22T15:19:06.222Z,7.67
2018-08-22T15:21:34.416Z,7.90
2018-08-22T15:24:02.569Z,9.40
2018-08-22T15:26:30.903Z,9.03
2018-08-22T15:28:59.018Z,8.97
2018-08-22T15:31:27.210Z,12.37
2018-08-22T15:33:55.422Z,9.30
2018-08-22T15:36:23.625Z,9.90
2018-08-22T15:38:51.771Z,8.97
2018-08-22T15:41:20.006Z,9.93
2018-08-22T15:43:48.151Z,11.47
2018-08-22T15:46:16.485Z,10.63
2018-08-22T15:48:44.650Z,10.70
2018-08-22T15:51:12.840Z,10.87
2018-08-22T15:53:40.973Z,10.13
2018-08-22T15:56:09.094Z,10.23
2018-08-22T15:58:37.310Z,9.50
2018-08-22T16:01:05.683Z,9.20
2018-08-22T16:03:33.895Z,9.23
2018-08-22T16:06:02.031Z,8.90
2018-08-22T16:08:30.443Z,9.00
2018-08-22T16:10:58.561Z,11.00
2018-08-22T16:13:29.786Z,12.20
2018-08-22T16:16:00.114Z,9.27
2018-08-22T16:18:28.252Z,10.53
2018-08-22T16:20:58.522Z,11.60
2018-08-22T16:23:28.224Z,12.30
2018-08-22T16:25:57.650Z,16.00
2018-08-22T16:28:26.476Z,13.90
2018-08-22T16:30:57.533Z,14.13
2018-08-22T16:33:24.474Z,14.93
2018-08-22T16:35:52.599Z,14.87
2018-08-22T16:38:20.751Z,14.97
2018-08-22T16:40:52.923Z,13.73
2018-08-22T16:43:38.022Z,13.53
2018-08-22T16:46:08.115Z,14.80
2018-08-22T16:48:36.612Z,18.30
2018-08-22T16:51:04.746Z,15.50
2018-08-22T16:53:33.374Z,16.13
2018-08-22T16:56:01.556Z,16.87
2018-08-22T16:58:29.742Z,17.13
2018-08-22T17:00:57.958Z,12.43
2018-08-22T17:03:26.494Z,14.30
2018-08-22T17:06:00.502Z,15.70
2018-08-22T17:08:28.917Z,13.50
2018-08-22T17:10:59.417Z,13.50
2018-08-22T17:13:36.818Z,14.40
2018-08-22T17:16:05.028Z,14.00
2018-08-22T17:18:33.165Z,18.40
2018-08-22T17:21:01.298Z,15.60
2018-08-22T17:23:29.494Z,15.50
2018-08-22T17:25:57.678Z,15.00
2018-08-22T17:28:31.290Z,14.30
2018-08-22T17:30:59.450Z,14.87
2018-08-22T17:33:30.830Z,15.10
2018-08-22T17:35:59.198Z,15.43
2018-08-22T17:38:27.343Z,16.30
2018-08-22T17:40:55.481Z,18.43
2018-08-22T17:43:23.666Z,17.97
2018-08-22T17:45:51.793Z,17.27
2018-08-22T17:48:21.494Z,18.80
2018-08-22T17:50:50.270Z,16.10
2018-08-22T17:53:18.405Z,16.90
2018-08-22T17:55:46.586Z,19.00
2018-08-22T17:58:14.718Z,18.40
2018-08-22T18:00:42.855Z,16.97
2018-08-22T18:03:11.018Z,17.03
2018-08-22T18:05:39.146Z,16.27
2018-08-22T18:08:08.394Z,16.50
2018-08-22T18:10:37.882Z,16.87
2018-08-22T18:13:13.494Z,16.07
2018-08-22T18:15:42.015Z,14.50
2018-08-22T18:18:10.178Z,15.30
2018-08-22T18:20:41.662Z,16.03
2018-08-22T18:23:09.938Z,14.70
2018-08-22T18:25:44.938Z,15.97
2018-08-22T18:28:14.225Z,18.70
2018-08-22T18:30:42.410Z,15.37
2018-08-22T18:33:10.738Z,22.87
2018-08-22T18:35:42.298Z,18.90
2018-08-22T18:38:10.431Z,21.70
2018-08-22T18:40:38.570Z,17.90
2018-08-22T18:43:07.658Z,16.97
2018-08-22T18:45:37.854Z,21.42
2018-08-22T18:48:06.263Z,17.53
2018-08-22T18:50:34.432Z,16.43
2018-08-22T18:53:03.102Z,17.87
2018-08-22T18:55:32.566Z,17.27
2018-08-22T18:58:02.230Z,17.67
2018-08-22T19:00:33.815Z,13.63
2018-08-22T19:03:02.642Z,17.47
2018-08-22T19:05:32.011Z,17.90
2018-08-22T19:08:06.796Z,18.30
2018-08-22T19:10:38.166Z,15.63
2018-08-22T19:13:11.691Z,19.47
2018-08-22T19:15:39.866Z,18.97
2018-08-22T19:18:09.143Z,16.60
2018-08-22T19:20:37.471Z,17.03
2018-08-22T19:23:05.634Z,16.53
2018-08-22T19:25:34.115Z,15.37
2018-08-22T19:28:02.785Z,17.20
2018-08-22T19:30:32.095Z,17.10
2018-08-22T19:33:00.258Z,16.00
2018-08-22T19:35:28.507Z,18.73
2018-08-22T19:38:02.150Z,17.67
2018-08-22T19:40:30.322Z,16.53
2018-08-22T19:42:59.330Z,14.80
2018-08-22T19:45:27.490Z,19.10
2018-08-22T19:47:55.666Z,21.13
2018-08-22T19:50:23.985Z,18.23
2018-08-22T19:52:52.165Z,17.67
2018-08-22T19:55:20.380Z,17.60
2018-08-22T19:57:48.566Z,19.53
2018-08-22T20:00:16.891Z,17.43
2018-08-22T20:02:45.026Z,19.20
2018-08-22T20:05:13.452Z,20.50
2018-08-22T20:07:41.694Z,19.50
2018-08-22T20:10:10.413Z,20.60
2018-08-22T20:12:46.443Z,23.63
2018-08-22T20:15:14.648Z,22.20
2018-08-22T20:17:46.559Z,24.20
2018-08-22T20:20:14.860Z,20.90
2018-08-22T20:22:44.320Z,23.47
2018-08-22T20:25:12.875Z,22.57
2018-08-22T20:27:41.090Z,22.10
2018-08-22T20:30:13.550Z,23.83
2018-08-22T20:32:53.173Z,23.13
2018-08-22T20:35:26.594Z,21.90
2018-08-22T20:37:55.010Z,22.37
2018-08-22T20:40:23.219Z,21.63
2018-08-22T20:42:51.449Z,21.10
2018-08-22T20:45:23.979Z,22.40
2018-08-22T20:47:58.314Z,20.23
2018-08-22T20:50:26.546Z,15.80
2018-08-22T20:52:59.766Z,20.90
2018-08-22T20:55:28.345Z,20.30
2018-08-22T20:57:56.729Z,19.07
2018-08-22T21:00:25.637Z,21.90
2018-08-22T21:02:55.237Z,20.80
2018-08-22T21:05:24.438Z,20.73
2018-08-22T21:07:52.670Z,20.80
2018-08-22T21:10:20.866Z,19.87
2018-08-22T21:12:49.586Z,20.30
2018-08-22T21:15:17.774Z,19.30
2018-08-22T21:17:46.376Z,17.40
2018-08-22T21:20:25.974Z,17.60
2018-08-22T21:22:56.005Z,19.33
2018-08-22T21:25:24.249Z,19.53
2018-08-22T21:27:52.986Z,20.50
2018-08-22T21:30:21.214Z,19.73
2018-08-22T21:32:49.754Z,21.17
2018-08-22T21:35:23.442Z,20.20
2018-08-22T21:37:51.690Z,20.80
2018-08-22T21:40:20.211Z,20.30
2018-08-22T21:42:48.412Z,22.57
2018-08-22T21:45:16.622Z,20.50
2018-08-22T21:47:44.854Z,21.27
2018-08-22T21:50:13.049Z,21.67
2018-08-22T21:53:01.410Z,22.70
2018-08-22T21:55:35.875Z,22.10
2018-08-22T21:58:04.899Z,22.33
2018-08-22T22:00:33.150Z,21.90
2018-08-22T22:03:01.380Z,19.60
2018-08-22T22:05:42.201Z,20.67
2018-08-22T22:08:10.406Z,21.57
2018-08-22T22:10:38.625Z,21.53
2018-08-22T22:13:07.777Z,22.20
2018-08-22T22:15:42.598Z,22.13
2018-08-22T22:18:11.295Z,22.90
2018-08-22T22:20:39.769Z,21.67
2018-08-22T22:23:07.952Z,23.27
2018-08-22T22:25:36.122Z,23.30
2018-08-22T22:28:04.486Z,24.40
2018-08-22T22:30:32.706Z,24.07
2018-08-22T22:33:01.683Z,22.80
2018-08-22T22:35:35.434Z,23.40
2018-08-22T22:38:11.639Z,23.33
2018-08-22T22:40:40.258Z,23.40
2018-08-22T22:43:09.751Z,22.60
2018-08-22T22:45:37.955Z,23.20
2018-08-22T22:48:06.149Z,24.90
2018-08-22T22:50:34.347Z,21.90
2018-08-22T22:53:03.970Z,23.77
2018-08-22T22:55:32.494Z,23.77
2018-08-22T22:58:01.859Z,24.07
2018-08-22T23:00:30.120Z,24.13
2018-08-22T23:03:07.230Z,23.23
2018-08-22T23:05:35.481Z,23.53
2018-08-22T23:08:03.823Z,23.47
2018-08-22T23:10:32.010Z,22.63
2018-08-22T23:13:00.806Z,23.33
2018-08-22T23:15:30.174Z,23.90
2018-08-22T23:17:59.590Z,22.63
2018-08-22T23:20:32.505Z,22.47
2018-08-22T23:23:00.743Z,22.50
2018-08-22T23:25:29.337Z,23.27
2018-08-22T23:27:57.536Z,23.53
2018-08-22T23:30:31.179Z,23.43
2018-08-22T23:32:59.375Z,22.50
2018-08-22T23:35:30.327Z,22.23
2018-08-22T23:38:02.721Z,25.20
2018-08-22T23:40:32.418Z,24.10
2018-08-22T23:43:00.659Z,24.80
2018-08-22T23:45:28.995Z,24.47
2018-08-22T23:47:57.187Z,24.13
2018-08-22T23:50:34.058Z,23.63
2018-08-22T23:53:02.238Z,24.20
2018-08-22T23:55:30.438Z,26.00
2018-08-22T23:57:58.634Z,26.53
